createdAt,value
2019-05-18T00:01:00.950Z,99045.85
2019-05-18T00:03:30.516Z,99043.42
2019-05-18T00:06:00.076Z,99039.55
2019-05-18T00:08:31.192Z,99041.63
2019-05-18T00:11:00.765Z,99045.41
2019-05-18T00:13:30.524Z,99036.73
2019-05-18T00:16:00.153Z,99031.94
2019-05-18T00:18:29.734Z,99037.25
2019-05-18T00:20:59.317Z,99042.19
2019-05-18T00:23:28.885Z,99039.44
2019-05-18T00:25:58.511Z,99044.95
2019-05-18T00:28:28.243Z,99040.98
2019-05-18T00:30:57.812Z,99043.84
2019-05-18T00:33:27.417Z,99038.00
2019-05-18T00:35:56.953Z,99038.96
2019-05-18T00:38:26.523Z,99030.73
2019-05-18T00:40:56.104Z,99027.80
2019-05-18T00:43:25.734Z,99028.67
2019-05-18T00:45:55.303Z,99031.59
2019-05-18T00:48:24.920Z,99024.93
2019-05-18T00:50:54.573Z,99023.41
2019-05-18T00:53:24.756Z,99022.64
2019-05-18T00:55:54.318Z,99025.25
2019-05-18T00:58:23.899Z,99028.08
2019-05-18T01:00:53.476Z,99026.69
2019-05-18T01:03:23.036Z,99026.73
2019-05-18T01:05:52.614Z,99031.42
2019-05-18T01:08:22.192Z,99029.41
2019-05-18T01:10:52.416Z,99033.41
2019-05-18T01:13:21.997Z,99037.61
2019-05-18T01:15:51.566Z,99038.05
2019-05-18T01:18:21.191Z,99035.77
2019-05-18T01:20:52.572Z,99031.86
2019-05-18T01:23:22.143Z,99025.81
2019-05-18T01:25:52.173Z,99037.22
2019-05-18T01:28:21.805Z,99037.16
2019-05-18T01:30:51.368Z,99035.34
2019-05-18T01:33:20.929Z,99032.66
2019-05-18T01:35:51.826Z,99033.91
2019-05-18T01:38:21.387Z,99033.10
2019-05-18T01:40:50.964Z,99035.23
2019-05-18T01:43:20.530Z,99037.89
2019-05-18T01:45:50.108Z,99037.17
2019-05-18T01:48:19.684Z,99042.39
2019-05-18T01:50:49.252Z,99039.23
2019-05-18T01:53:18.828Z,99039.77
2019-05-18T01:55:48.406Z,99031.28
2019-05-18T01:58:17.962Z,99035.64
2019-05-18T02:00:47.542Z,99035.77
2019-05-18T02:03:17.099Z,99031.20
2019-05-18T02:05:46.823Z,99029.50
2019-05-18T02:08:16.380Z,99023.27
2019-05-18T02:10:45.986Z,99024.38
2019-05-18T02:13:15.513Z,99027.11
2019-05-18T02:15:45.091Z,99022.84
2019-05-18T02:18:28.325Z,99018.83
2019-05-18T02:20:46.017Z,99008.92
2019-05-18T02:23:15.580Z,99014.41
2019-05-18T02:25:45.279Z,99017.20
2019-05-18T02:28:14.923Z,99015.98
2019-05-18T02:30:44.549Z,99015.35
2019-05-18T02:33:14.123Z,99012.11
2019-05-18T02:35:43.763Z,99005.06
2019-05-18T02:38:14.777Z,98999.47
2019-05-18T02:40:45.553Z,99000.98
2019-05-18T02:43:16.401Z,99001.65
2019-05-18T02:45:46.039Z,98997.70
2019-05-18T02:48:15.613Z,98997.08
2019-05-18T02:50:45.195Z,98997.61
2019-05-18T02:53:16.279Z,98993.31
2019-05-18T02:55:45.857Z,98984.89
2019-05-18T02:58:15.542Z,98986.06
2019-05-18T03:00:45.127Z,98978.91
2019-05-18T03:03:36.793Z,98975.03
2019-05-18T03:06:06.585Z,98978.13
2019-05-18T03:08:36.267Z,98971.31
2019-05-18T03:11:06.010Z,98972.27
2019-05-18T03:13:35.728Z,98969.97
2019-05-18T03:16:05.455Z,98971.31
2019-05-18T03:18:35.073Z,98981.23
2019-05-18T03:21:04.644Z,98981.47
2019-05-18T03:23:34.200Z,98984.67
2019-05-18T03:26:03.878Z,98986.70
2019-05-18T03:28:33.475Z,98988.97
2019-05-18T03:31:04.577Z,98995.81
2019-05-18T03:33:34.168Z,98991.13
2019-05-18T03:36:03.711Z,98993.98
2019-05-18T03:38:33.281Z,98996.15
2019-05-18T03:41:02.867Z,98986.55
2019-05-18T03:43:32.438Z,98987.11
2019-05-18T03:46:02.036Z,98990.27
2019-05-18T03:48:31.608Z,98990.71
2019-05-18T03:51:01.169Z,98995.73
2019-05-18T03:53:30.749Z,98996.31
2019-05-18T03:56:00.322Z,98992.02
2019-05-18T03:58:29.879Z,98999.61
2019-05-18T04:00:59.435Z,98997.70
2019-05-18T04:03:29.000Z,98993.21
2019-05-18T04:05:58.556Z,98999.34
2019-05-18T04:08:28.248Z,98996.64
2019-05-18T04:10:57.823Z,98992.16
2019-05-18T04:13:27.442Z,98992.02
2019-05-18T04:15:57.018Z,98988.88
2019-05-18T04:18:26.582Z,98991.61
2019-05-18T04:20:56.155Z,98987.80
2019-05-18T04:23:25.709Z,98990.50
2019-05-18T04:25:55.276Z,98990.68
2019-05-18T04:28:24.853Z,98995.52
2019-05-18T04:30:54.405Z,98998.80
2019-05-18T04:33:23.973Z,98997.53
2019-05-18T04:35:53.554Z,98999.31
2019-05-18T04:38:23.115Z,99006.06
2019-05-18T04:40:52.677Z,99007.28
2019-05-18T04:43:22.248Z,99013.66
2019-05-18T04:45:51.811Z,99015.98
2019-05-18T04:48:21.378Z,99014.66
2019-05-18T04:50:50.952Z,99011.96
2019-05-18T04:53:20.530Z,99010.28
2019-05-18T04:55:53.140Z,99016.48
2019-05-18T04:58:22.710Z,99013.34
2019-05-18T05:00:52.269Z,99018.16
2019-05-18T05:03:21.831Z,99016.59
2019-05-18T05:05:51.423Z,99019.74
2019-05-18T05:08:20.967Z,99024.59
2019-05-18T05:10:50.551Z,99024.90
2019-05-18T05:13:20.183Z,99020.98
2019-05-18T05:15:50.793Z,99025.48
2019-05-18T05:18:20.300Z,99030.41
2019-05-18T05:20:49.958Z,99032.58
2019-05-18T05:23:19.531Z,99026.83
2019-05-18T05:25:49.097Z,99030.00
2019-05-18T05:28:18.677Z,99030.02
2019-05-18T05:30:48.245Z,99029.61
2019-05-18T05:33:17.811Z,99035.25
2019-05-18T05:35:47.375Z,99038.53
2019-05-18T05:38:16.951Z,99035.00
2019-05-18T05:40:46.512Z,99044.70
2019-05-18T05:43:16.091Z,99041.14
2019-05-18T05:45:45.663Z,99037.91
2019-05-18T05:48:15.233Z,99039.96
2019-05-18T05:50:46.714Z,99034.91
2019-05-18T05:53:16.353Z,99049.50
2019-05-18T05:55:47.450Z,99043.58
2019-05-18T05:58:17.046Z,99042.56
2019-05-18T06:00:46.612Z,99041.26
2019-05-18T06:03:16.170Z,99036.28
2019-05-18T06:05:45.731Z,99038.02
2019-05-18T06:08:15.972Z,99032.59
2019-05-18T06:10:45.550Z,99039.16
2019-05-18T06:13:15.171Z,99042.16
2019-05-18T06:15:44.747Z,99041.45
2019-05-18T06:18:14.370Z,99041.38
2019-05-18T06:20:51.618Z,99048.48
2019-05-18T06:23:15.247Z,99037.62
2019-05-18T06:25:45.078Z,99041.72
2019-05-18T06:28:14.654Z,99030.77
2019-05-18T06:30:44.215Z,99039.11
2019-05-18T06:33:13.779Z,99040.83
2019-05-18T06:35:43.340Z,99041.28
2019-05-18T06:38:12.907Z,99037.85
2019-05-18T06:40:42.472Z,99043.42
2019-05-18T06:43:12.027Z,99037.70
2019-05-18T06:45:41.604Z,99038.91
2019-05-18T06:48:11.204Z,99039.62
2019-05-18T06:50:40.761Z,99038.27
2019-05-18T06:53:10.892Z,99043.39
2019-05-18T06:55:41.471Z,99041.56
2019-05-18T06:58:12.454Z,99049.41
2019-05-18T07:00:42.010Z,99043.50
2019-05-18T07:03:11.603Z,99056.79
2019-05-18T07:05:41.161Z,99046.54
2019-05-18T07:08:10.815Z,99048.92
2019-05-18T07:10:40.385Z,99043.92
2019-05-18T07:13:09.938Z,99046.55
2019-05-18T07:15:40.521Z,99047.63
2019-05-18T07:18:11.304Z,99052.03
2019-05-18T07:20:40.881Z,99047.81
2019-05-18T07:23:10.441Z,99042.83
2019-05-18T07:25:39.994Z,99052.30
2019-05-18T07:28:09.578Z,99048.85
2019-05-18T07:30:39.136Z,99044.36
2019-05-18T07:33:09.894Z,99045.48
2019-05-18T07:35:39.533Z,99044.39
2019-05-18T07:38:09.180Z,99048.23
2019-05-18T07:40:38.751Z,99048.84
2019-05-18T07:43:08.330Z,99041.86
2019-05-18T07:45:38.466Z,99038.16
2019-05-18T07:48:08.112Z,99037.08
2019-05-18T07:50:37.665Z,99036.13
2019-05-18T07:53:07.306Z,99034.80
2019-05-18T07:55:36.871Z,99038.95
2019-05-18T07:58:06.449Z,99040.54
2019-05-18T08:00:36.157Z,99038.41
2019-05-18T08:03:05.800Z,99040.81
2019-05-18T08:05:36.122Z,99037.54
2019-05-18T08:08:05.683Z,99039.30
2019-05-18T08:10:37.888Z,99041.34
2019-05-18T08:13:08.566Z,99042.66
2019-05-18T08:15:38.477Z,99036.84
2019-05-18T08:18:08.189Z,99030.67
2019-05-18T08:20:37.838Z,99028.13
2019-05-18T08:23:07.417Z,99028.13
2019-05-18T08:25:36.989Z,99033.63
2019-05-18T08:28:06.617Z,99024.44
2019-05-18T08:30:36.183Z,99031.92
2019-05-18T08:33:05.883Z,99031.41
2019-05-18T08:35:35.520Z,99025.33
2019-05-18T08:38:06.869Z,99024.42
2019-05-18T08:40:36.472Z,99016.26
2019-05-18T08:43:06.020Z,99020.94
2019-05-18T08:45:35.588Z,99024.64
2019-05-18T08:48:05.224Z,99019.83
2019-05-18T08:50:34.785Z,99017.77
2019-05-18T08:53:04.430Z,99011.40
2019-05-18T08:55:33.989Z,99010.73
2019-05-18T08:58:03.553Z,99014.71
2019-05-18T09:00:33.120Z,99012.77
2019-05-18T09:03:02.700Z,99014.98
2019-05-18T09:05:32.260Z,99015.19
2019-05-18T09:08:01.839Z,99023.14
2019-05-18T09:10:31.402Z,99024.79
2019-05-18T09:13:00.977Z,99022.47
2019-05-18T09:15:30.532Z,99026.80
2019-05-18T09:18:00.088Z,99020.06
2019-05-18T09:20:29.649Z,99018.41
2019-05-18T09:22:59.217Z,99021.12
2019-05-18T09:25:28.794Z,99024.33
2019-05-18T09:27:59.495Z,99018.83
2019-05-18T09:30:29.061Z,99012.73
2019-05-18T09:32:58.698Z,99020.68
2019-05-18T09:35:28.258Z,99017.22
2019-05-18T09:37:57.848Z,99017.18
2019-05-18T09:40:28.221Z,99012.34
2019-05-18T09:42:57.773Z,99008.66
2019-05-18T09:45:27.415Z,99006.58
2019-05-18T09:47:56.998Z,99007.63
2019-05-18T09:50:26.549Z,99003.45
2019-05-18T09:52:56.151Z,99001.59
2019-05-18T09:55:25.707Z,99000.48
2019-05-18T09:57:55.275Z,98999.02
2019-05-18T10:00:25.041Z,98996.27
2019-05-18T10:02:54.596Z,98997.25
2019-05-18T10:05:25.631Z,98992.74
2019-05-18T10:07:55.190Z,98996.96
2019-05-18T10:10:24.807Z,98998.97
2019-05-18T10:12:54.368Z,98998.55
2019-05-18T10:15:24.006Z,98993.41
2019-05-18T10:17:53.578Z,98993.11
2019-05-18T10:20:23.156Z,98995.78
2019-05-18T10:23:04.236Z,98993.45
2019-05-18T10:25:24.080Z,98992.80
2019-05-18T10:27:53.640Z,98984.19
2019-05-18T10:30:23.450Z,98976.34
2019-05-18T10:32:53.015Z,98975.13
2019-05-18T10:35:22.586Z,98978.95
2019-05-18T10:37:52.150Z,98976.02
2019-05-18T10:40:21.786Z,98975.53
2019-05-18T10:42:51.347Z,98973.92
2019-05-18T10:45:21.247Z,98965.37
2019-05-18T10:47:50.818Z,98972.55
2019-05-18T10:50:20.450Z,98971.28
2019-05-18T10:52:50.019Z,98967.77
2019-05-18T10:55:19.815Z,98957.12
2019-05-18T10:57:49.386Z,98953.90
2019-05-18T11:00:21.119Z,98957.36
2019-05-18T11:02:50.961Z,98949.09
2019-05-18T11:05:20.670Z,98954.94
2019-05-18T11:07:50.317Z,98947.63
2019-05-18T11:10:20.402Z,98950.28
2019-05-18T11:12:50.110Z,98943.25
2019-05-18T11:15:20.418Z,98942.09
2019-05-18T11:17:49.967Z,98947.10
2019-05-18T11:20:20.150Z,98950.50
2019-05-18T11:22:49.714Z,98943.55
2019-05-18T11:25:19.491Z,98934.52
2019-05-18T11:27:49.065Z,98934.52
2019-05-18T11:30:19.029Z,98933.27
2019-05-18T11:32:48.607Z,98925.33
2019-05-18T11:35:20.443Z,98931.91
2019-05-18T11:37:50.169Z,98921.58
2019-05-18T11:40:20.450Z,98922.86
2019-05-18T11:42:50.020Z,98920.22
2019-05-18T11:45:21.317Z,98922.67
2019-05-18T11:47:50.942Z,98916.25
2019-05-18T11:50:22.152Z,98919.52
2019-05-18T11:52:51.709Z,98912.08
2019-05-18T11:55:21.693Z,98913.55
2019-05-18T11:57:51.318Z,98911.34
2019-05-18T12:00:23.570Z,98911.34
2019-05-18T12:02:53.296Z,98908.52
2019-05-18T12:05:22.924Z,98908.08
2019-05-18T12:07:52.497Z,98906.28
2019-05-18T12:10:22.270Z,98899.02
2019-05-18T12:12:51.978Z,98903.24
2019-05-18T12:15:23.362Z,98903.77
2019-05-18T12:17:52.956Z,98902.42
2019-05-18T12:20:24.203Z,98895.84
2019-05-18T12:22:53.743Z,98897.77
2019-05-18T12:25:23.393Z,98890.38
2019-05-18T12:27:52.960Z,98890.23
2019-05-18T12:30:24.224Z,98884.80
2019-05-18T12:32:53.792Z,98883.20
2019-05-18T12:35:23.439Z,98877.20
2019-05-18T12:37:53.004Z,98887.38
2019-05-18T12:40:23.289Z,98889.97
2019-05-18T12:42:52.941Z,98890.98
2019-05-18T12:45:23.119Z,98889.00
2019-05-18T12:47:52.677Z,98890.59
2019-05-18T12:50:23.164Z,98885.76
2019-05-18T12:52:54.260Z,98883.08
2019-05-18T12:55:23.971Z,98882.28
2019-05-18T12:57:53.820Z,98882.44
2019-05-18T13:00:24.489Z,98872.43
2019-05-18T13:02:54.061Z,98876.75
2019-05-18T13:05:24.189Z,98876.67
2019-05-18T13:07:53.756Z,98872.86
2019-05-18T13:10:23.925Z,98876.73
2019-05-18T13:12:55.145Z,98870.52
2019-05-18T13:15:25.433Z,98874.50
2019-05-18T13:17:55.021Z,98870.12
2019-05-18T13:20:25.148Z,98873.58
2019-05-18T13:22:54.748Z,98881.66
2019-05-18T13:25:24.517Z,98874.55
2019-05-18T13:27:54.102Z,98885.11
2019-05-18T13:30:24.175Z,98881.45
2019-05-18T13:32:53.726Z,98884.36
2019-05-18T13:35:25.277Z,98888.29
2019-05-18T13:37:54.846Z,98891.62
2019-05-18T13:40:25.033Z,98908.15
2019-05-18T13:42:54.602Z,98890.16
2019-05-18T13:45:24.302Z,98886.89
2019-05-18T13:47:53.854Z,98889.25
2019-05-18T13:50:23.568Z,98887.95
2019-05-18T13:52:54.720Z,98887.55
2019-05-18T13:55:24.291Z,98898.19
2019-05-18T13:57:53.846Z,98889.56
2019-05-18T14:00:23.569Z,98901.45
2019-05-18T14:02:53.214Z,98907.57
2019-05-18T14:05:22.957Z,98899.77
2019-05-18T14:07:52.512Z,98902.99
2019-05-18T14:10:22.216Z,98896.87
2019-05-18T14:12:53.678Z,98888.59
2019-05-18T14:15:23.412Z,98886.45
2019-05-18T14:17:53.042Z,98888.12
2019-05-18T14:20:22.697Z,98881.38
2019-05-18T14:22:52.318Z,98882.34
2019-05-18T14:25:21.926Z,98878.95
2019-05-18T14:27:52.279Z,98876.98
2019-05-18T14:30:22.242Z,98878.28
2019-05-18T14:32:51.812Z,98862.94
2019-05-18T14:35:21.473Z,98868.39
2019-05-18T14:37:52.770Z,98864.02
2019-05-18T14:40:22.414Z,98865.27
2019-05-18T14:42:51.962Z,98857.72
2019-05-18T14:45:21.603Z,98853.00
2019-05-18T14:47:51.189Z,98845.80
2019-05-18T14:50:21.558Z,98844.42
2019-05-18T14:52:51.224Z,98843.77
2019-05-18T14:55:32.704Z,98844.30
2019-05-18T14:57:52.240Z,98850.64
2019-05-18T15:00:23.102Z,98849.36
2019-05-18T15:02:52.757Z,98842.34
2019-05-18T15:05:22.387Z,98839.70
2019-05-18T15:07:51.959Z,98844.48
2019-05-18T15:10:21.573Z,98843.09
2019-05-18T15:12:51.176Z,98839.75
2019-05-18T15:15:20.967Z,98841.00
2019-05-18T15:17:50.577Z,98846.55
2019-05-18T15:20:23.209Z,98842.08
2019-05-18T15:22:52.840Z,98843.24
2019-05-18T15:25:22.415Z,98843.97
2019-05-18T15:27:52.063Z,98846.90
2019-05-18T15:30:21.837Z,98843.19
2019-05-18T15:32:51.401Z,98843.00
2019-05-18T15:35:21.117Z,98847.02
2019-05-18T15:37:50.742Z,98851.59
2019-05-18T15:40:20.329Z,98856.16
2019-05-18T15:42:49.885Z,98849.28
2019-05-18T15:45:20.026Z,98850.64
2019-05-18T15:47:49.603Z,98847.56
2019-05-18T15:50:21.501Z,98845.61
2019-05-18T15:52:51.056Z,98852.19
2019-05-18T15:55:21.057Z,98851.88
2019-05-18T15:57:50.651Z,98854.16
2019-05-18T16:00:21.714Z,98852.38
2019-05-18T16:02:51.952Z,98852.09
2019-05-18T16:05:21.510Z,98845.06
2019-05-18T16:07:51.153Z,98848.14
2019-05-18T16:10:22.545Z,98845.84
2019-05-18T16:12:52.126Z,98845.81
2019-05-18T16:15:21.824Z,98836.48
2019-05-18T16:17:51.406Z,98838.14
2019-05-18T16:20:21.920Z,98842.25
2019-05-18T16:22:51.482Z,98838.20
2019-05-18T16:25:21.189Z,98838.38
2019-05-18T16:27:50.789Z,98841.20
2019-05-18T16:30:20.559Z,98838.12
2019-05-18T16:32:50.181Z,98845.16
2019-05-18T16:35:20.349Z,98845.38
2019-05-18T16:37:49.914Z,98838.50
2019-05-18T16:40:19.688Z,98840.34
2019-05-18T16:42:49.236Z,98836.63
2019-05-18T16:45:18.942Z,98840.44
2019-05-18T16:47:49.623Z,98842.84
2019-05-18T16:50:21.910Z,98843.96
2019-05-18T16:52:51.554Z,98845.28
2019-05-18T16:55:22.219Z,98844.59
2019-05-18T16:57:52.096Z,98845.67
2019-05-18T17:00:22.739Z,98858.14
2019-05-18T17:02:52.345Z,98860.42
2019-05-18T17:05:21.991Z,98858.14
2019-05-18T17:07:52.897Z,98862.95
2019-05-18T17:10:22.750Z,98864.85
2019-05-18T17:12:52.305Z,98872.52
2019-05-18T17:15:22.080Z,98868.91
2019-05-18T17:17:52.405Z,98870.22
2019-05-18T17:20:22.433Z,98864.69
2019-05-18T17:22:52.007Z,98866.86
2019-05-18T17:25:21.572Z,98868.41
2019-05-18T17:27:51.233Z,98872.23
2019-05-18T17:30:21.007Z,98869.48
2019-05-18T17:32:50.594Z,98868.62
2019-05-18T17:35:20.224Z,98863.10
2019-05-18T17:37:49.777Z,98863.08
2019-05-18T17:40:19.556Z,98865.13
2019-05-18T17:42:49.125Z,98876.02
2019-05-18T17:45:18.837Z,98885.78
2019-05-18T17:47:48.392Z,98893.30
2019-05-18T17:50:18.311Z,98893.73
2019-05-18T17:52:47.871Z,98894.97
2019-05-18T17:55:17.904Z,98892.70
2019-05-18T17:57:47.461Z,98896.56
2019-05-18T18:00:17.421Z,98898.08
2019-05-18T18:02:48.356Z,98899.28
2019-05-18T18:05:18.118Z,98902.05
2019-05-18T18:07:47.764Z,98912.03
2019-05-18T18:10:18.440Z,98922.51
2019-05-18T18:12:48.054Z,98949.78
2019-05-18T18:15:19.423Z,98977.02
2019-05-18T18:17:48.987Z,98986.92
2019-05-18T18:20:18.877Z,98980.86
2019-05-18T18:22:48.450Z,98989.91
2019-05-18T18:25:18.298Z,98984.83
2019-05-18T18:27:47.882Z,98982.63
2019-05-18T18:30:17.840Z,98989.67
2019-05-18T18:32:47.414Z,98991.34
2019-05-18T18:35:17.104Z,98998.84
2019-05-18T18:37:46.701Z,99006.73
2019-05-18T18:40:16.575Z,99000.88
2019-05-18T18:42:46.129Z,98997.45
2019-05-18T18:45:16.297Z,98992.20
2019-05-18T18:47:45.925Z,98997.80
2019-05-18T18:50:16.093Z,98990.15
2019-05-18T18:52:45.657Z,98987.89
2019-05-18T18:55:15.467Z,99001.42
2019-05-18T18:57:45.302Z,98998.14
2019-05-18T19:00:16.744Z,98992.41
2019-05-18T19:02:46.313Z,99001.45
2019-05-18T19:05:19.264Z,99003.88
2019-05-18T19:07:48.841Z,99003.78
2019-05-18T19:10:18.558Z,98999.36
2019-05-18T19:12:48.130Z,99001.55
2019-05-18T19:15:17.915Z,98999.75
2019-05-18T19:17:49.015Z,99012.22
2019-05-18T19:20:18.906Z,99011.66
2019-05-18T19:22:48.470Z,99011.21
2019-05-18T19:25:18.266Z,99016.34
2019-05-18T19:27:54.989Z,99031.91
2019-05-18T19:30:20.622Z,99031.42
2019-05-18T19:32:50.185Z,99043.84
2019-05-18T19:35:19.820Z,99070.88
2019-05-18T19:37:49.400Z,99088.23
2019-05-18T19:40:19.392Z,99087.07
2019-05-18T19:42:48.959Z,99081.38
2019-05-18T19:45:19.335Z,99073.70
2019-05-18T19:47:49.978Z,99070.92
2019-05-18T19:50:19.610Z,99075.02
2019-05-18T19:52:49.191Z,99072.77
2019-05-18T19:55:18.747Z,99070.20
2019-05-18T19:57:49.455Z,99072.13
2019-05-18T20:00:19.844Z,99078.70
2019-05-18T20:02:49.491Z,99077.38
2019-05-18T20:05:19.046Z,99079.00
2019-05-18T20:07:48.610Z,99075.12
2019-05-18T20:10:18.490Z,99076.50
2019-05-18T20:12:48.050Z,99073.45
2019-05-18T20:15:19.130Z,99062.91
2019-05-18T20:17:48.692Z,99049.74
2019-05-18T20:20:18.477Z,99040.90
2019-05-18T20:22:49.643Z,99029.56
2019-05-18T20:25:19.209Z,99020.23
2019-05-18T20:27:48.776Z,99017.86
2019-05-18T20:30:19.639Z,99010.11
2019-05-18T20:32:49.207Z,99020.30
2019-05-18T20:35:18.784Z,99022.11
2019-05-18T20:37:48.351Z,99029.45
2019-05-18T20:40:17.971Z,99036.44
2019-05-18T20:42:47.546Z,99037.34
2019-05-18T20:45:17.249Z,99028.55
2019-05-18T20:47:46.974Z,99025.08
2019-05-18T20:50:16.867Z,99025.39
2019-05-18T20:52:47.349Z,99032.06
2019-05-18T20:55:16.986Z,99030.02
2019-05-18T20:57:47.610Z,99037.12
2019-05-18T21:00:18.410Z,99039.95
2019-05-18T21:02:47.970Z,99039.56
2019-05-18T21:05:17.752Z,99031.61
2019-05-18T21:07:47.329Z,99032.67
2019-05-18T21:10:17.104Z,99029.81
2019-05-18T21:12:46.660Z,99030.58
2019-05-18T21:15:17.132Z,99030.38
2019-05-18T21:17:46.693Z,99031.59
2019-05-18T21:20:16.406Z,99030.97
2019-05-18T21:22:46.111Z,99037.52
2019-05-18T21:25:15.675Z,99036.31
2019-05-18T21:27:45.244Z,99045.34
2019-05-18T21:30:15.231Z,99049.30
2019-05-18T21:32:44.797Z,99055.84
2019-05-18T21:35:15.747Z,99078.50
2019-05-18T21:37:45.455Z,99080.75
2019-05-18T21:40:15.320Z,99083.91
2019-05-18T21:42:44.900Z,99090.17
2019-05-18T21:45:14.695Z,99090.20
2019-05-18T21:47:44.262Z,99081.50
2019-05-18T21:50:14.524Z,99082.36
2019-05-18T21:52:45.663Z,99090.22
2019-05-18T21:55:15.424Z,99090.05
2019-05-18T21:57:46.521Z,99099.63
2019-05-18T22:00:16.895Z,99098.23
2019-05-18T22:02:46.450Z,99093.21
2019-05-18T22:05:17.286Z,99085.84
2019-05-18T22:07:46.843Z,99093.52
2019-05-18T22:10:25.426Z,99098.47
2019-05-18T22:12:47.948Z,99102.13
2019-05-18T22:15:18.143Z,99105.33
2019-05-18T22:18:06.573Z,99104.09
2019-05-18T22:20:43.143Z,99103.23
2019-05-18T22:23:08.875Z,99104.23
2019-05-18T22:25:38.428Z,99097.34
2019-05-18T22:28:07.989Z,99095.62
2019-05-18T22:30:37.620Z,99091.69
2019-05-18T22:33:07.192Z,99087.42
2019-05-18T22:35:36.751Z,99081.74
2019-05-18T22:38:06.343Z,99085.14
2019-05-18T22:40:35.904Z,99081.50
2019-05-18T22:43:05.538Z,99086.02
2019-05-18T22:45:35.115Z,99081.36
2019-05-18T22:48:04.697Z,99074.52
2019-05-18T22:50:34.327Z,99069.48
2019-05-18T22:53:03.895Z,99068.09
2019-05-18T22:55:33.457Z,99059.63
2019-05-18T22:58:03.041Z,99061.41
2019-05-18T23:00:32.655Z,99057.84
2019-05-18T23:03:03.776Z,99057.84
2019-05-18T23:05:33.337Z,99053.92
2019-05-18T23:08:02.905Z,99048.99
2019-05-18T23:10:32.475Z,99042.67
2019-05-18T23:13:02.047Z,99041.78
2019-05-18T23:15:31.616Z,99033.87
2019-05-18T23:18:01.180Z,99027.50
2019-05-18T23:20:31.875Z,99023.48
2019-05-18T23:23:02.721Z,99018.48
2019-05-18T23:25:32.263Z,99010.19
2019-05-18T23:28:01.928Z,98996.27
2019-05-18T23:30:31.460Z,98994.28
2019-05-18T23:33:01.136Z,98984.78
2019-05-18T23:35:30.688Z,98982.65
2019-05-18T23:38:00.318Z,98972.69
2019-05-18T23:40:29.929Z,98968.34
2019-05-18T23:42:59.515Z,98966.44
2019-05-18T23:45:29.070Z,98966.09
2019-05-18T23:47:59.542Z,98959.17
2019-05-18T23:50:29.251Z,98950.73
2019-05-18T23:52:58.812Z,98961.45
2019-05-18T23:55:28.407Z,98956.13
2019-05-18T23:58:04.942Z,98953.09
